Time;durP1;ratioP1;P1;durP2;ratioP2;P2;SDS_P1;SDS_P2;PMS_P1;PMS_P2;Temp;Humidity;BMP_temperature;BMP_pressure;BME280_temperature;BME280_humidity;BME280_pressure;Samples;Min_cycle;Max_cycle;Signal;HPM_P1;HPM_P2
2023/04/06 00:00:01;;;;;;;8.82;6.07;;;19.40;43.50;;;;;;4938695;29;20560;-69
2023/04/06 00:02:27;;;;;;;9.10;5.60;;;19.40;43.40;;;;;;4938804;29;20533;-70
2023/04/06 00:04:53;;;;;;;7.43;5.28;;;19.40;43.40;;;;;;4938698;29;20461;-70
2023/04/06 00:07:19;;;;;;;8.82;5.78;;;19.40;43.40;;;;;;4938501;29;20031;-70
2023/04/06 00:09:46;;;;;;;8.25;5.80;;;19.40;43.40;;;;;;4938528;29;20036;-70
2023/04/06 00:12:13;;;;;;;8.43;5.68;;;19.40;43.30;;;;;;4938908;29;20031;-70
2023/04/06 00:14:40;;;;;;;8.45;5.70;;;19.40;43.30;;;;;;4938366;29;20032;-70
2023/04/06 00:17:06;;;;;;;9.63;6.05;;;19.30;43.30;;;;;;4938663;29;20071;-70
2023/04/06 00:19:32;;;;;;;9.23;5.80;;;19.30;43.30;;;;;;4938233;29;20032;-70
2023/04/06 00:21:59;;;;;;;9.77;5.75;;;19.40;43.20;;;;;;4938700;29;20106;-70
2023/04/06 00:24:25;;;;;;;8.50;5.75;;;19.30;43.20;;;;;;4938490;29;20031;-70
2023/04/06 00:26:52;;;;;;;7.90;5.75;;;19.30;43.20;;;;;;4938179;29;20110;-70
2023/04/06 00:29:18;;;;;;;9.07;6.10;;;19.30;43.10;;;;;;4938194;29;20383;-70
2023/04/06 00:31:44;;;;;;;9.20;5.90;;;19.30;43.10;;;;;;4938218;29;20036;-70
2023/04/06 00:34:10;;;;;;;9.52;6.10;;;19.30;43.10;;;;;;4937996;29;20036;-70
2023/04/06 00:36:36;;;;;;;9.52;5.80;;;19.30;43.10;;;;;;4938029;29;20079;-70
2023/04/06 00:39:02;;;;;;;8.32;5.93;;;19.30;43.10;;;;;;4938042;29;20402;-70
2023/04/06 00:41:28;;;;;;;9.25;6.43;;;19.30;43.00;;;;;;4937733;29;20052;-70
2023/04/06 00:43:55;;;;;;;8.00;5.90;;;19.20;43.00;;;;;;4937944;29;20038;-70
2023/04/06 00:46:21;;;;;;;8.95;6.00;;;19.20;43.00;;;;;;4937813;29;20549;-70
2023/04/06 00:48:48;;;;;;;8.25;5.75;;;19.20;42.90;;;;;;4936520;29;20027;-70
2023/04/06 00:51:13;;;;;;;7.60;5.65;;;19.20;42.90;;;;;;4937994;29;20027;-69
2023/04/06 00:53:40;;;;;;;7.90;5.72;;;19.20;42.90;;;;;;4937818;29;20039;-69
2023/04/06 00:56:06;;;;;;;9.40;6.20;;;19.20;42.90;;;;;;4937601;29;20028;-70
2023/04/06 00:58:31;;;;;;;8.00;5.75;;;19.20;42.80;;;;;;4937699;29;20051;-69
2023/04/06 01:00:58;;;;;;;8.65;6.28;;;19.20;42.80;;;;;;4936285;29;20031;-70
2023/04/06 01:03:24;;;;;;;8.05;5.70;;;19.20;42.80;;;;;;4937641;29;20067;-70
2023/04/06 01:05:55;;;;;;;10.82;6.13;;;19.20;42.80;;;;;;4937604;29;20035;-70
2023/04/06 01:08:21;;;;;;;8.93;5.80;;;19.20;42.80;;;;;;4936972;29;20028;-70
2023/04/06 01:10:46;;;;;;;7.50;5.70;;;19.20;42.70;;;;;;4937338;29;20394;-70
2023/04/06 01:13:13;;;;;;;8.30;6.10;;;19.20;42.70;;;;;;4937586;29;20058;-70
2023/04/06 01:15:39;;;;;;;9.00;5.72;;;19.10;42.60;;;;;;4937268;29;20066;-70
2023/04/06 01:18:06;;;;;;;8.18;5.85;;;19.10;42.60;;;;;;4937258;29;20421;-69
2023/04/06 01:20:32;;;;;;;9.38;6.10;;;19.10;42.60;;;;;;4937569;29;20031;-70
2023/04/06 01:22:58;;;;;;;9.35;5.63;;;19.10;42.60;;;;;;4937170;29;20031;-70
2023/04/06 01:25:25;;;;;;;10.18;6.07;;;19.10;42.60;;;;;;4937184;29;20031;-70
2023/04/06 01:27:51;;;;;;;8.68;5.75;;;19.10;42.60;;;;;;4937314;29;20042;-70
2023/04/06 01:30:17;;;;;;;7.82;5.38;;;19.10;42.50;;;;;;4937120;29;20036;-70
2023/04/06 01:32:44;;;;;;;7.93;5.68;;;19.10;42.50;;;;;;4936928;29;20087;-70
2023/04/06 01:35:10;;;;;;;10.75;6.15;;;19.00;42.50;;;;;;4937252;29;20031;-70
2023/04/06 01:37:36;;;;;;;8.93;5.90;;;19.00;42.50;;;;;;4936926;29;20015;-70
2023/04/06 01:40:02;;;;;;;9.52;6.38;;;19.00;42.40;;;;;;4936846;29;20479;-70
2023/04/06 01:42:30;;;;;;;8.32;5.82;;;19.00;42.40;;;;;;4936821;29;20059;-70
2023/04/06 01:44:56;;;;;;;8.57;5.60;;;19.00;42.50;;;;;;4936937;29;20027;-70
2023/04/06 01:47:22;;;;;;;8.63;5.90;;;19.00;42.50;;;;;;4936697;29;20032;-69
2023/04/06 01:49:48;;;;;;;7.72;5.68;;;19.00;42.50;;;;;;4936728;29;20414;-69
2023/04/06 01:52:15;;;;;;;10.32;6.18;;;19.00;42.50;;;;;;4936581;29;20087;-69
2023/04/06 01:54:42;;;;;;;9.23;5.82;;;19.00;42.50;;;;;;4936977;29;20027;-69
2023/04/06 01:57:10;;;;;;;8.77;5.70;;;19.00;42.50;;;;;;4937083;29;20058;-69
2023/04/06 01:59:36;;;;;;;8.20;5.80;;;19.00;42.50;;;;;;4935113;29;20028;-70
2023/04/06 02:02:02;;;;;;;8.45;6.28;;;18.90;42.40;;;;;;4936610;29;20482;-69
2023/04/06 02:04:29;;;;;;;9.20;6.40;;;18.90;42.40;;;;;;4936365;29;20434;-69
2023/04/06 02:06:54;;;;;;;9.05;5.70;;;19.00;42.40;;;;;;4936407;29;20047;-69
2023/04/06 02:09:21;;;;;;;8.90;5.97;;;18.90;42.40;;;;;;4936355;29;20473;-69
2023/04/06 02:11:48;;;;;;;9.73;6.57;;;18.90;42.30;;;;;;4936307;29;20043;-69
2023/04/06 02:14:14;;;;;;;8.38;6.25;;;18.90;42.30;;;;;;4936418;29;20034;-69
2023/04/06 02:16:44;;;;;;;9.27;5.60;;;18.90;42.30;;;;;;4936303;29;20031;-70
2023/04/06 02:19:10;;;;;;;8.18;6.03;;;18.90;42.30;;;;;;4936156;29;20082;-69
2023/04/06 02:21:36;;;;;;;9.65;6.18;;;18.90;42.30;;;;;;4935321;29;20024;-70
2023/04/06 02:24:03;;;;;;;8.77;6.05;;;18.90;42.20;;;;;;4936428;29;20039;-69
2023/04/06 02:26:31;;;;;;;8.35;6.00;;;18.90;42.20;;;;;;4936335;29;20028;-70
2023/04/06 02:28:57;;;;;;;8.50;5.85;;;18.90;42.20;;;;;;4936474;29;20474;-70
2023/04/06 02:31:24;;;;;;;10.48;5.97;;;18.90;42.10;;;;;;4936147;29;20046;-70
2023/04/06 02:33:50;;;;;;;10.25;6.30;;;18.90;42.10;;;;;;4936306;29;20023;-70
2023/04/06 02:36:17;;;;;;;9.38;6.10;;;18.90;42.10;;;;;;4936043;29;20040;-69
2023/04/06 02:38:44;;;;;;;8.27;6.03;;;18.90;42.10;;;;;;4936094;29;20382;-70
2023/04/06 02:41:10;;;;;;;8.30;5.60;;;18.90;42.10;;;;;;4935576;29;20054;-70
2023/04/06 02:43:36;;;;;;;7.55;5.38;;;18.90;42.10;;;;;;4935873;29;20040;-70
2023/04/06 02:46:02;;;;;;;7.97;5.55;;;18.90;42.00;;;;;;4935844;29;20031;-69
2023/04/06 02:48:28;;;;;;;7.78;5.45;;;18.90;42.00;;;;;;4935777;29;20382;-69
2023/04/06 02:50:54;;;;;;;10.40;6.30;;;18.90;42.00;;;;;;4935834;29;20028;-69
2023/04/06 02:53:20;;;;;;;8.15;5.90;;;18.90;41.90;;;;;;4935763;29;20035;-69
2023/04/06 02:55:46;;;;;;;8.75;5.93;;;18.80;41.90;;;;;;4935817;29;20019;-69
2023/04/06 02:58:13;;;;;;;8.38;5.68;;;18.80;41.90;;;;;;4935828;29;20405;-70
2023/04/06 03:00:39;;;;;;;9.23;5.78;;;18.80;41.90;;;;;;4935677;29;20036;-70
2023/04/06 03:03:05;;;;;;;8.63;5.88;;;18.80;41.80;;;;;;4935805;29;20031;-70
2023/04/06 03:05:31;;;;;;;8.98;5.90;;;18.80;41.80;;;;;;4936011;29;20030;-70
2023/04/06 03:07:59;;;;;;;8.65;5.57;;;18.80;41.80;;;;;;4935757;29;20031;-71
2023/04/06 03:10:25;;;;;;;8.10;5.88;;;18.80;41.80;;;;;;4935655;29;20560;-70
2023/04/06 03:12:52;;;;;;;8.15;5.85;;;18.80;41.70;;;;;;4935745;29;20032;-70
2023/04/06 03:15:18;;;;;;;10.98;5.78;;;18.80;41.70;;;;;;4935782;29;20020;-70
2023/04/06 03:17:44;;;;;;;8.32;5.60;;;18.70;41.70;;;;;;4935688;29;20043;-70
2023/04/06 03:20:10;;;;;;;8.45;5.95;;;18.80;41.70;;;;;;4935841;29;20024;-70
2023/04/06 03:22:36;;;;;;;8.50;5.68;;;18.80;41.60;;;;;;4936053;29;20024;-70
2023/04/06 03:25:02;;;;;;;7.88;5.57;;;18.80;41.60;;;;;;4937595;29;20038;-70
2023/04/06 03:27:32;;;;;;;9.10;5.90;;;18.70;41.60;;;;;;4938645;29;20107;-70
2023/04/06 03:29:58;;;;;;;7.45;5.60;;;18.70;41.60;;;;;;4935593;29;20050;-70
2023/04/06 03:32:24;;;;;;;8.30;5.80;;;18.70;41.50;;;;;;4937457;29;20561;-70
2023/04/06 03:34:50;;;;;;;7.47;5.63;;;18.70;41.50;;;;;;4938119;29;20394;-70
2023/04/06 03:37:17;;;;;;;8.40;5.72;;;18.70;41.50;;;;;;4939080;29;20512;-70
2023/04/06 03:39:44;;;;;;;7.43;5.18;;;18.70;41.50;;;;;;4938914;29;20036;-70
2023/04/06 03:42:10;;;;;;;8.77;5.95;;;18.70;41.50;;;;;;4939394;29;20050;-70
2023/04/06 03:44:36;;;;;;;7.65;5.80;;;18.70;41.40;;;;;;4938983;29;20494;-71
2023/04/06 03:47:02;;;;;;;8.98;5.55;;;18.70;41.40;;;;;;4938991;29;20020;-70
2023/04/06 03:49:28;;;;;;;8.43;5.50;;;18.70;41.40;;;;;;4938805;29;20031;-70
2023/04/06 03:51:56;;;;;;;8.05;5.72;;;18.70;41.40;;;;;;4938836;29;20036;-70
2023/04/06 03:54:23;;;;;;;8.65;5.40;;;18.70;41.40;;;;;;4938878;29;20083;-70
2023/04/06 03:56:52;;;;;;;9.40;5.95;;;18.70;41.30;;;;;;4939090;29;20050;-70
2023/04/06 03:59:19;;;;;;;8.55;6.10;;;18.70;41.30;;;;;;4938948;29;20087;-70
2023/04/06 04:01:46;;;;;;;8.63;5.95;;;18.70;41.30;;;;;;4939034;29;20121;-70
2023/04/06 04:04:12;;;;;;;9.73;6.28;;;18.60;41.30;;;;;;4938753;29;20028;-70
2023/04/06 04:06:38;;;;;;;10.07;6.80;;;18.60;41.20;;;;;;4938364;29;20083;-70
2023/04/06 04:09:04;;;;;;;11.93;7.13;;;18.60;41.20;;;;;;4938593;29;20394;-69
2023/04/06 04:11:30;;;;;;;11.07;6.97;;;18.60;41.20;;;;;;4938520;29;20506;-71
2023/04/06 04:13:56;;;;;;;10.88;7.03;;;18.60;41.20;;;;;;4938523;29;20028;-68
2023/04/06 04:16:25;;;;;;;11.30;7.07;;;18.60;41.30;;;;;;4946553;28;20078;-69
2023/04/06 04:18:52;;;;;;;10.38;6.72;;;18.60;41.30;;;;;;4946707;29;20043;-69
2023/04/06 04:21:17;;;;;;;12.65;7.78;;;18.60;41.30;;;;;;4938318;29;20386;-70
2023/04/06 04:23:43;;;;;;;10.95;7.25;;;18.60;41.30;;;;;;4938357;29;20038;-69
2023/04/06 04:26:12;;;;;;;10.82;6.90;;;18.60;41.30;;;;;;4938253;29;20098;-69
2023/04/06 04:28:38;;;;;;;10.43;6.95;;;18.60;41.30;;;;;;4938098;29;20368;-69
2023/04/06 04:31:05;;;;;;;13.93;7.15;;;18.60;41.40;;;;;;4938116;29;20035;-69
2023/04/06 04:33:30;;;;;;;12.82;7.10;;;18.50;41.40;;;;;;4937918;29;20023;-72
2023/04/06 04:35:57;;;;;;;10.80;6.75;;;18.50;41.40;;;;;;4938252;29;20478;-72
2023/04/06 04:38:24;;;;;;;10.38;6.65;;;18.50;41.40;;;;;;4937828;29;20119;-72
2023/04/06 04:40:50;;;;;;;10.05;6.82;;;18.50;41.50;;;;;;4937785;29;20585;-71
2023/04/06 04:43:16;;;;;;;10.02;6.70;;;18.50;41.40;;;;;;4936936;29;20095;-71
2023/04/06 04:45:46;;;;;;;11.23;6.82;;;18.50;41.40;;;;;;4937868;29;20028;-72
2023/04/06 04:48:12;;;;;;;12.00;6.75;;;18.50;41.40;;;;;;4937984;29;20036;-72
2023/04/06 04:50:38;;;;;;;10.00;6.25;;;18.50;41.40;;;;;;4937786;29;20103;-70
2023/04/06 04:53:05;;;;;;;10.95;6.20;;;18.50;41.60;;;;;;4938328;29;20035;-70
2023/04/06 04:55:32;;;;;;;11.88;7.05;;;18.50;41.40;;;;;;4937994;29;20095;-70
2023/04/06 04:57:58;;;;;;;16.58;7.22;;;18.60;41.50;;;;;;4937620;29;20028;-69
2023/04/06 05:00:25;;;;;;;16.00;7.22;;;18.60;41.60;;;;;;4945220;29;20042;-69
2023/04/06 05:02:52;;;;;;;16.42;7.18;;;18.60;41.70;;;;;;4937790;29;20059;-66
2023/04/06 05:05:21;;;;;;;13.65;6.88;;;18.60;41.70;;;;;;4937906;29;20032;-67
2023/04/06 05:07:47;;;;;;;11.88;7.00;;;18.60;41.70;;;;;;4937383;29;20028;-69
2023/04/06 05:10:13;;;;;;;15.32;7.53;;;18.60;41.60;;;;;;4936228;29;20144;-70
2023/04/06 05:12:39;;;;;;;11.73;7.57;;;18.50;41.60;;;;;;4937478;29;20143;-67
2023/04/06 05:15:05;;;;;;;14.95;7.15;;;18.50;41.60;;;;;;4937381;29;20059;-64
2023/04/06 05:17:33;;;;;;;16.15;6.88;;;18.50;41.60;;;;;;4944266;29;20039;-67
2023/04/06 05:20:00;;;;;;;12.70;7.30;;;18.50;41.60;;;;;;4958814;28;20032;-76
2023/04/06 05:22:26;;;;;;;13.43;6.88;;;18.50;41.70;;;;;;4956182;28;20028;-68
